createdAt,value
2023-04-03T00:00:53.987Z,0.58
2023-04-03T00:01:56.401Z,0.52
2023-04-03T00:02:59.535Z,0.56
2023-04-03T00:04:02.181Z,0.64
2023-04-03T00:05:05.749Z,0.73
2023-04-03T00:06:09.830Z,0.71
2023-04-03T00:07:13.545Z,0.72
2023-04-03T00:08:16.312Z,0.77
2023-04-03T00:09:18.823Z,0.79
2023-04-03T00:10:21.464Z,0.82
2023-04-03T00:11:23.982Z,0.77
2023-04-03T00:12:26.503Z,0.77
2023-04-03T00:13:29.026Z,0.82
2023-04-03T00:14:31.545Z,0.90
2023-04-03T00:15:34.819Z,0.86
2023-04-03T00:16:37.337Z,0.78
2023-04-03T00:17:39.850Z,0.71
2023-04-03T00:18:42.712Z,0.64
2023-04-03T00:19:45.354Z,0.64
2023-04-03T00:20:48.230Z,0.71
2023-04-03T00:21:51.717Z,0.72
2023-04-03T00:22:54.838Z,0.77
2023-04-03T00:23:57.355Z,0.73
2023-04-03T00:24:59.882Z,0.75
2023-04-03T00:26:02.753Z,0.72
2023-04-03T00:27:05.417Z,0.67
2023-04-03T00:28:08.042Z,0.72
2023-04-03T00:29:10.758Z,0.76
2023-04-03T00:30:17.093Z,0.84
2023-04-03T00:31:19.860Z,0.88
2023-04-03T00:32:22.574Z,0.93
2023-04-03T00:33:25.764Z,0.93
2023-04-03T00:34:28.315Z,0.88
2023-04-03T00:35:30.964Z,0.82
2023-04-03T00:36:33.632Z,0.85
2023-04-03T00:37:36.598Z,0.88
2023-04-03T00:38:39.480Z,0.86
2023-04-03T00:39:42.004Z,0.91
2023-04-03T00:40:47.524Z,1.04
2023-04-03T00:41:49.921Z,0.98
2023-04-03T00:42:56.762Z,1.01
2023-04-03T00:43:59.403Z,0.97
2023-04-03T00:45:02.043Z,0.97
2023-04-03T00:46:04.839Z,1.00
2023-04-03T00:47:12.013Z,1.07
2023-04-03T00:48:38.423Z,1.11
2023-04-03T00:49:41.645Z,0.96
2023-04-03T00:50:45.489Z,1.02
2023-04-03T00:51:48.128Z,0.97
2023-04-03T00:52:50.648Z,1.01
2023-04-03T00:54:03.971Z,1.09
2023-04-03T00:55:10.095Z,1.04
2023-04-03T00:56:16.221Z,1.00
2023-04-03T00:57:19.370Z,0.98
2023-04-03T00:58:26.421Z,0.99
2023-04-03T00:59:34.816Z,0.93
2023-04-03T01:00:41.659Z,0.93
2023-04-03T01:01:45.072Z,0.80
2023-04-03T01:02:47.581Z,0.70
2023-04-03T01:03:52.307Z,0.67
2023-04-03T01:04:55.098Z,0.64
2023-04-03T01:05:57.498Z,0.58
2023-04-03T01:07:07.946Z,0.64
2023-04-03T01:08:10.703Z,0.50
2023-04-03T01:09:13.231Z,0.47
2023-04-03T01:10:18.283Z,0.46
2023-04-03T01:11:22.102Z,0.37
2023-04-03T01:12:28.589Z,0.40
2023-04-03T01:13:34.233Z,0.40
2023-04-03T01:14:36.632Z,0.33
2023-04-03T01:15:39.156Z,0.26
2023-04-03T01:16:41.912Z,0.26
2023-04-03T01:17:52.050Z,0.32
2023-04-03T01:18:54.631Z,0.13
2023-04-03T01:20:18.034Z,0.24
2023-04-03T01:21:38.918Z,0.31
2023-04-03T01:22:59.811Z,0.34
2023-04-03T01:24:37.351Z,0.34
2023-04-03T01:25:46.497Z,0.23
2023-04-03T01:26:49.594Z,0.13
2023-04-03T01:27:52.120Z,0.06
2023-04-03T01:28:56.564Z,0.13
2023-04-03T01:29:59.558Z,0.03
2023-04-03T01:31:23.828Z,0.19
2023-04-03T01:32:26.404Z,-0.02
2023-04-03T01:33:28.842Z,-0.06
2023-04-03T01:34:31.482Z,-0.02
2023-04-03T01:35:34.496Z,-0.07
2023-04-03T01:36:37.006Z,-0.11
2023-04-03T01:37:39.641Z,-0.08
2023-04-03T01:38:42.413Z,-0.10
2023-04-03T01:39:44.924Z,-0.15
2023-04-03T01:40:47.443Z,-0.13
2023-04-03T01:41:50.447Z,-0.14
2023-04-03T01:42:59.449Z,-0.07
2023-04-03T01:44:02.207Z,-0.07
2023-04-03T01:45:05.091Z,-0.11
2023-04-03T01:46:07.965Z,-0.13
2023-04-03T01:47:10.396Z,-0.15
2023-04-03T01:48:14.575Z,-0.06
2023-04-03T01:49:16.975Z,-0.05
2023-04-03T01:50:19.488Z,-0.11
2023-04-03T01:51:22.261Z,-0.19
2023-04-03T01:52:24.770Z,-0.12
2023-04-03T01:53:27.533Z,-0.13
2023-04-03T01:54:29.939Z,-0.17
2023-04-03T01:55:32.458Z,-0.09
2023-04-03T01:56:35.332Z,-0.12
2023-04-03T01:57:37.862Z,-0.04
2023-04-03T01:58:40.622Z,-0.05
2023-04-03T01:59:43.273Z,0.02
2023-04-03T02:00:46.531Z,0.02
2023-04-03T02:01:49.018Z,0.05
2023-04-03T02:02:51.562Z,-0.02
2023-04-03T02:03:53.993Z,0.00
2023-04-03T02:04:56.581Z,-0.02
2023-04-03T02:05:59.354Z,-0.04
2023-04-03T02:07:02.463Z,0.01
2023-04-03T02:08:05.464Z,0.01
2023-04-03T02:09:08.000Z,-0.08
2023-04-03T02:10:11.106Z,-0.06
2023-04-03T02:11:13.624Z,-0.05
2023-04-03T02:12:16.157Z,-0.04
2023-04-03T02:13:20.355Z,-0.03
2023-04-03T02:14:24.662Z,-0.05
2023-04-03T02:15:27.187Z,-0.02
2023-04-03T02:16:30.006Z,0.06
2023-04-03T02:17:32.480Z,-0.02
2023-04-03T02:18:35.003Z,0.01
2023-04-03T02:19:38.112Z,-0.02
2023-04-03T02:20:40.749Z,0.01
2023-04-03T02:21:43.267Z,0.06
2023-04-03T02:22:46.887Z,0.09
2023-04-03T02:23:49.393Z,-0.02
2023-04-03T02:24:52.897Z,-0.04
2023-04-03T02:26:08.863Z,0.10
2023-04-03T02:27:11.593Z,-0.01
2023-04-03T02:28:13.995Z,0.04
2023-04-03T02:29:16.533Z,0.07
2023-04-03T02:30:19.281Z,0.05
2023-04-03T02:31:22.066Z,0.06
2023-04-03T02:32:24.938Z,0.07
2023-04-03T02:33:27.677Z,0.13
2023-04-03T02:34:30.433Z,0.07
2023-04-03T02:35:34.809Z,0.11
2023-04-03T02:36:37.875Z,0.07
2023-04-03T02:37:43.285Z,0.06
2023-04-03T02:38:46.634Z,0.10
2023-04-03T02:39:49.159Z,0.10
2023-04-03T02:40:52.161Z,0.07
2023-04-03T02:41:54.558Z,0.06
2023-04-03T02:43:00.112Z,-0.01
2023-04-03T02:44:04.398Z,0.03
2023-04-03T02:45:08.246Z,-0.01
2023-04-03T02:46:11.079Z,-0.06
2023-04-03T02:47:13.654Z,-0.14
2023-04-03T02:48:17.798Z,-0.11
2023-04-03T02:49:20.364Z,-0.11
2023-04-03T02:50:22.905Z,-0.09
2023-04-03T02:51:25.769Z,-0.11
2023-04-03T02:52:29.376Z,-0.17
2023-04-03T02:53:33.931Z,-0.14
2023-04-03T02:54:42.818Z,-0.16
2023-04-03T02:55:47.013Z,-0.20
2023-04-03T02:56:49.560Z,-0.23
2023-04-03T02:57:52.073Z,-0.29
2023-04-03T02:58:54.814Z,-0.36
2023-04-03T02:59:57.339Z,-0.36
2023-04-03T03:01:00.986Z,-0.40
2023-04-03T03:02:03.499Z,-0.45
2023-04-03T03:03:06.029Z,-0.41
2023-04-03T03:04:08.497Z,-0.45
2023-04-03T03:05:11.169Z,-0.48
2023-04-03T03:06:17.284Z,-0.41
2023-04-03T03:07:19.788Z,-0.53
2023-04-03T03:08:22.430Z,-0.61
2023-04-03T03:09:24.948Z,-0.60
2023-04-03T03:10:27.462Z,-0.53
2023-04-03T03:11:30.584Z,-0.58
2023-04-03T03:12:33.831Z,-0.55
2023-04-03T03:13:36.711Z,-0.57
2023-04-03T03:14:39.235Z,-0.68
2023-04-03T03:15:41.786Z,-0.65
2023-04-03T03:16:44.270Z,-0.71
2023-04-03T03:17:47.327Z,-0.80
2023-04-03T03:18:49.916Z,-0.79
2023-04-03T03:19:52.428Z,-0.82
2023-04-03T03:20:59.515Z,-0.83
2023-04-03T03:22:02.649Z,-0.94
2023-04-03T03:23:05.508Z,-0.97
2023-04-03T03:24:08.158Z,-0.97
2023-04-03T03:25:10.669Z,-0.88
2023-04-03T03:26:13.590Z,-0.88
2023-04-03T03:27:17.146Z,-0.95
2023-04-03T03:28:19.800Z,-0.99
2023-04-03T03:29:22.677Z,-1.01
2023-04-03T03:30:25.554Z,-1.04
2023-04-03T03:31:28.121Z,-1.02
2023-04-03T03:32:30.656Z,-0.98
2023-04-03T03:33:33.597Z,-1.00
2023-04-03T03:34:36.026Z,-0.99
2023-04-03T03:35:38.916Z,-1.01
2023-04-03T03:36:42.358Z,-1.01
2023-04-03T03:37:44.889Z,-1.06
2023-04-03T03:38:47.645Z,-1.07
2023-04-03T03:39:50.161Z,-1.08
2023-04-03T03:40:53.171Z,-1.05
2023-04-03T03:41:57.118Z,-1.00
2023-04-03T03:42:59.521Z,-0.92
2023-04-03T03:44:02.161Z,-0.93
2023-04-03T03:45:07.921Z,-0.92
2023-04-03T03:46:11.096Z,-0.94
2023-04-03T03:47:13.682Z,-0.99
2023-04-03T03:48:16.572Z,-0.99
2023-04-03T03:49:18.962Z,-1.03
2023-04-03T03:50:21.736Z,-0.99
2023-04-03T03:51:25.811Z,-0.99
2023-04-03T03:52:28.450Z,-1.08
2023-04-03T03:53:30.969Z,-1.17
2023-04-03T03:54:39.138Z,-1.13
2023-04-03T03:55:41.772Z,-1.23
2023-04-03T03:56:44.409Z,-1.16
2023-04-03T03:57:46.820Z,-1.26
2023-04-03T03:58:50.548Z,-1.24
2023-04-03T03:59:53.895Z,-1.27
2023-04-03T04:00:56.543Z,-1.31
2023-04-03T04:01:59.090Z,-1.30
2023-04-03T04:03:02.071Z,-1.36
2023-04-03T04:04:06.800Z,-1.35
2023-04-03T04:05:09.617Z,-1.37
2023-04-03T04:06:12.506Z,-1.41
2023-04-03T04:07:15.138Z,-1.46
2023-04-03T04:08:17.784Z,-1.41
2023-04-03T04:09:21.745Z,-1.43
2023-04-03T04:10:24.380Z,-1.49
2023-04-03T04:11:28.344Z,-1.56
2023-04-03T04:12:31.626Z,-1.55
2023-04-03T04:13:34.520Z,-1.54
2023-04-03T04:14:37.351Z,-1.55
2023-04-03T04:15:41.361Z,-1.57
2023-04-03T04:16:43.896Z,-1.59
2023-04-03T04:17:51.925Z,-1.53
2023-04-03T04:18:54.629Z,-1.43
2023-04-03T04:19:57.387Z,-1.41
2023-04-03T04:21:01.002Z,-1.42
2023-04-03T04:22:03.869Z,-1.38
2023-04-03T04:23:07.723Z,-1.43
2023-04-03T04:24:10.830Z,-1.50
2023-04-03T04:25:14.443Z,-1.55
2023-04-03T04:26:17.200Z,-1.57
2023-04-03T04:27:19.717Z,-1.55
2023-04-03T04:28:22.357Z,-1.56
2023-04-03T04:29:27.634Z,-1.58
2023-04-03T04:30:30.153Z,-1.61
2023-04-03T04:31:34.169Z,-1.63
2023-04-03T04:32:36.787Z,-1.59
2023-04-03T04:33:39.403Z,-1.56
2023-04-03T04:34:43.690Z,-1.58
2023-04-03T04:35:48.947Z,-1.53
2023-04-03T04:36:53.351Z,-1.65
2023-04-03T04:37:56.320Z,-1.65
2023-04-03T04:38:59.580Z,-1.65
2023-04-03T04:40:04.240Z,-1.60
2023-04-03T04:41:06.894Z,-1.57
2023-04-03T04:42:15.571Z,-1.59
2023-04-03T04:43:20.215Z,-1.56
2023-04-03T04:44:25.965Z,-1.55
2023-04-03T04:45:28.486Z,-1.60
2023-04-03T04:46:31.164Z,-1.57
2023-04-03T04:47:35.091Z,-1.62
2023-04-03T04:48:37.613Z,-1.66
2023-04-03T04:49:41.093Z,-1.67
2023-04-03T04:50:43.620Z,-1.65
2023-04-03T04:51:51.938Z,-1.67
2023-04-03T04:52:59.448Z,-1.48
2023-04-03T04:54:02.109Z,-1.45
2023-04-03T04:55:05.333Z,-1.48
2023-04-03T04:56:08.570Z,-1.52
2023-04-03T04:57:12.822Z,-1.49
2023-04-03T04:58:15.772Z,-1.44
2023-04-03T04:59:19.423Z,-1.40
2023-04-03T05:00:23.492Z,-1.48
2023-04-03T05:01:26.421Z,-1.51
2023-04-03T05:02:36.128Z,-1.54
2023-04-03T05:03:38.698Z,-1.48
2023-04-03T05:04:41.494Z,-1.53
2023-04-03T05:05:49.748Z,-1.43
2023-04-03T05:06:52.390Z,-1.49
2023-04-03T05:07:59.254Z,-1.49
2023-04-03T05:09:02.585Z,-1.47
2023-04-03T05:10:07.021Z,-1.51
2023-04-03T05:11:10.144Z,-1.54
2023-04-03T05:12:12.799Z,-1.54
2023-04-03T05:13:22.025Z,-1.54
2023-04-03T05:14:25.276Z,-1.50
2023-04-03T05:15:28.647Z,-1.49
2023-04-03T05:16:31.866Z,-1.49
2023-04-03T05:17:34.538Z,-1.54
2023-04-03T05:18:38.264Z,-1.54
2023-04-03T05:19:45.547Z,-1.56
2023-04-03T05:20:51.450Z,-1.46
2023-04-03T05:21:54.911Z,-1.35
2023-04-03T05:22:57.594Z,-1.30
2023-04-03T05:24:04.051Z,-1.14
2023-04-03T05:25:09.686Z,-1.16
2023-04-03T05:26:13.398Z,-1.14
2023-04-03T05:27:15.934Z,-1.13
2023-04-03T05:28:21.800Z,-1.09
2023-04-03T05:29:24.438Z,-1.07
2023-04-03T05:30:27.080Z,-1.03
2023-04-03T05:31:30.823Z,-1.07
2023-04-03T05:32:33.965Z,-1.06
2023-04-03T05:33:49.531Z,-1.03
2023-04-03T05:34:54.576Z,-1.06
2023-04-03T05:35:57.212Z,-0.93
2023-04-03T05:37:05.256Z,-0.84
2023-04-03T05:38:08.841Z,-0.81
2023-04-03T05:39:11.610Z,-0.66
2023-04-03T05:40:18.758Z,-0.52
2023-04-03T05:41:23.841Z,-0.43
2023-04-03T05:42:26.960Z,-0.42
2023-04-03T05:43:29.493Z,-0.42
2023-04-03T05:44:32.495Z,-0.47
2023-04-03T05:45:35.403Z,-0.36
2023-04-03T05:46:38.135Z,-0.34
2023-04-03T05:47:43.367Z,-0.27
2023-04-03T05:48:46.283Z,-0.22
2023-04-03T05:49:52.179Z,-0.13
2023-04-03T05:50:57.156Z,-0.13
2023-04-03T05:52:02.733Z,-0.11
2023-04-03T05:53:07.178Z,-0.12
2023-04-03T05:54:35.383Z,0.04
2023-04-03T05:55:50.505Z,-0.06
2023-04-03T05:56:54.249Z,0.07
2023-04-03T05:57:57.697Z,0.09
2023-04-03T05:59:00.459Z,0.17
2023-04-03T06:00:06.702Z,0.33
2023-04-03T06:01:17.152Z,0.32
2023-04-03T06:02:22.783Z,0.39
2023-04-03T06:03:26.440Z,0.39
2023-04-03T06:04:29.130Z,0.44
2023-04-03T06:05:31.781Z,0.53
2023-04-03T06:06:52.615Z,0.79
2023-04-03T06:07:55.057Z,0.82
2023-04-03T06:08:57.704Z,0.72
2023-04-03T06:10:01.548Z,0.78
2023-04-03T06:11:03.952Z,0.82
2023-04-03T06:12:06.463Z,0.91
2023-04-03T06:13:09.113Z,1.00
2023-04-03T06:14:11.888Z,1.04
2023-04-03T06:15:14.385Z,1.11
2023-04-03T06:16:18.586Z,1.27
2023-04-03T06:17:21.498Z,1.28
2023-04-03T06:18:24.354Z,1.34
2023-04-03T06:19:27.108Z,1.44
2023-04-03T06:20:32.278Z,1.56
2023-04-03T06:21:36.828Z,1.63
2023-04-03T06:22:39.368Z,1.70
2023-04-03T06:23:41.866Z,1.94
2023-04-03T06:24:44.869Z,2.09
2023-04-03T06:25:48.111Z,2.41
2023-04-03T06:26:52.434Z,2.76
2023-04-03T06:27:56.706Z,3.22
2023-04-03T06:28:59.273Z,3.62
2023-04-03T06:30:01.917Z,3.86
2023-04-03T06:31:04.473Z,4.32
2023-04-03T06:32:07.319Z,4.77
2023-04-03T06:33:10.066Z,5.48
2023-04-03T06:34:12.960Z,6.46
2023-04-03T06:35:15.481Z,7.25
2023-04-03T06:36:21.718Z,7.44
2023-04-03T06:37:27.135Z,7.66
2023-04-03T06:38:29.762Z,8.13
2023-04-03T06:39:32.285Z,8.78
2023-04-03T06:40:34.819Z,9.03
2023-04-03T06:41:37.390Z,9.70
2023-04-03T06:42:39.724Z,9.69
2023-04-03T06:43:46.560Z,9.22
2023-04-03T06:44:49.093Z,9.77
2023-04-03T06:45:51.859Z,9.38
2023-04-03T06:46:55.439Z,10.07
2023-04-03T06:47:58.118Z,10.42
2023-04-03T06:49:00.486Z,10.66
2023-04-03T06:50:03.128Z,11.18
2023-04-03T06:51:05.648Z,10.19
2023-04-03T06:52:08.661Z,10.60
2023-04-03T06:53:11.533Z,11.31
2023-04-03T06:54:14.060Z,11.99
2023-04-03T06:55:17.061Z,12.43
2023-04-03T06:56:20.051Z,12.13
2023-04-03T06:57:22.421Z,12.55
2023-04-03T06:58:25.222Z,12.97
2023-04-03T06:59:27.854Z,12.77
2023-04-03T07:00:31.335Z,12.82
2023-04-03T07:01:33.905Z,11.98
2023-04-03T07:02:36.555Z,12.14
2023-04-03T07:03:39.742Z,11.78
2023-04-03T07:04:42.294Z,12.46
2023-04-03T07:05:45.934Z,11.37
2023-04-03T07:06:49.095Z,11.42
2023-04-03T07:07:52.462Z,11.53
2023-04-03T07:08:56.212Z,12.33
2023-04-03T07:09:58.697Z,11.64
2023-04-03T07:11:01.583Z,11.49
2023-04-03T07:12:04.222Z,11.60
2023-04-03T07:13:06.740Z,11.23
2023-04-03T07:14:09.379Z,11.65
2023-04-03T07:15:13.958Z,12.33
2023-04-03T07:16:16.649Z,12.75
2023-04-03T07:17:18.983Z,13.31
2023-04-03T07:18:22.466Z,13.59
2023-04-03T07:19:28.350Z,13.77
2023-04-03T07:20:31.019Z,14.31
2023-04-03T07:21:33.505Z,13.49
2023-04-03T07:22:36.148Z,14.43
2023-04-03T07:23:38.879Z,14.90
2023-04-03T07:24:42.282Z,14.31
2023-04-03T07:25:46.006Z,14.65
2023-04-03T07:26:53.073Z,13.84
2023-04-03T07:27:55.834Z,14.32
2023-04-03T07:28:58.486Z,14.04
2023-04-03T07:30:01.000Z,14.01
2023-04-03T07:31:09.868Z,14.75
2023-04-03T07:32:12.764Z,15.60
2023-04-03T07:33:17.920Z,16.51
2023-04-03T07:34:20.573Z,16.26
2023-04-03T07:35:23.558Z,17.64
2023-04-03T07:36:26.160Z,17.15
2023-04-03T07:37:28.963Z,17.03
2023-04-03T07:38:31.729Z,17.13
2023-04-03T07:39:34.374Z,17.58
2023-04-03T07:40:38.111Z,17.53
2023-04-03T07:41:40.738Z,18.70
2023-04-03T07:42:43.244Z,18.51
2023-04-03T07:43:46.294Z,19.77
2023-04-03T07:44:48.765Z,19.77
2023-04-03T07:45:51.945Z,19.63
2023-04-03T07:46:54.532Z,19.61
2023-04-03T07:47:57.062Z,19.61
2023-04-03T07:48:59.575Z,20.19
2023-04-03T07:50:02.101Z,20.43
2023-04-03T07:51:06.173Z,19.74
2023-04-03T07:52:10.160Z,19.65
2023-04-03T07:53:12.772Z,18.84
2023-04-03T07:54:16.140Z,19.19
2023-04-03T07:55:18.785Z,19.86
2023-04-03T07:56:21.889Z,19.98
2023-04-03T07:57:24.574Z,19.67
2023-04-03T07:58:27.172Z,19.53
2023-04-03T07:59:29.700Z,19.69
2023-04-03T08:00:32.223Z,19.78
2023-04-03T08:01:34.899Z,19.27
2023-04-03T08:02:38.161Z,19.84
2023-04-03T08:03:41.137Z,19.89
2023-04-03T08:04:43.813Z,19.56
2023-04-03T08:05:48.778Z,19.32
2023-04-03T08:06:52.040Z,18.75
2023-04-03T08:07:54.430Z,19.31
2023-04-03T08:08:57.076Z,19.34
2023-04-03T08:09:59.581Z,18.37
2023-04-03T08:11:03.674Z,19.13
2023-04-03T08:12:06.186Z,18.25
2023-04-03T08:13:09.551Z,16.87
2023-04-03T08:14:17.422Z,17.36
2023-04-03T08:15:20.347Z,16.67
2023-04-03T08:16:24.783Z,16.73
2023-04-03T08:17:27.368Z,17.03
2023-04-03T08:18:29.824Z,17.26
2023-04-03T08:19:32.346Z,17.82
2023-04-03T08:20:34.867Z,17.46
2023-04-03T08:21:37.509Z,16.91
2023-04-03T08:22:40.027Z,16.38
2023-04-03T08:23:42.913Z,17.28
2023-04-03T08:24:56.133Z,18.04
2023-04-03T08:26:07.403Z,18.67
2023-04-03T08:27:10.035Z,18.86
2023-04-03T08:28:13.274Z,18.23
2023-04-03T08:29:15.810Z,18.88
2023-04-03T08:30:18.471Z,19.29
2023-04-03T08:31:21.293Z,18.49
2023-04-03T08:32:25.280Z,19.15
2023-04-03T08:33:28.395Z,18.28
2023-04-03T08:34:30.923Z,18.46
2023-04-03T08:35:33.502Z,17.92
2023-04-03T08:36:36.469Z,16.98
2023-04-03T08:37:39.814Z,18.37
2023-04-03T08:38:42.447Z,19.18
2023-04-03T08:39:45.082Z,19.53
2023-04-03T08:40:47.610Z,20.27
2023-04-03T08:41:50.135Z,19.55
2023-04-03T08:43:05.260Z,19.85
2023-04-03T08:44:15.805Z,19.92
2023-04-03T08:45:26.604Z,20.37
2023-04-03T08:46:47.850Z,19.71
2023-04-03T08:47:55.390Z,19.25
2023-04-03T08:49:00.799Z,18.21
2023-04-03T08:50:10.599Z,19.55
2023-04-03T08:51:19.665Z,20.64
2023-04-03T08:52:43.284Z,19.64
2023-04-03T08:53:58.303Z,19.45
2023-04-03T08:55:03.452Z,19.50
2023-04-03T08:56:10.057Z,18.29
2023-04-03T08:57:13.469Z,18.32
2023-04-03T08:58:22.652Z,18.93
2023-04-03T08:59:33.453Z,18.48
2023-04-03T09:00:56.021Z,19.37
2023-04-03T09:02:03.346Z,19.97
2023-04-03T09:03:06.725Z,20.34
2023-04-03T09:04:15.169Z,21.04
2023-04-03T09:05:37.240Z,21.40
2023-04-03T09:06:42.130Z,21.62
2023-04-03T09:08:02.505Z,20.45
2023-04-03T09:09:23.383Z,20.89
2023-04-03T09:10:28.425Z,21.47
2023-04-03T09:12:01.672Z,22.09
2023-04-03T09:13:14.416Z,22.56
2023-04-03T09:14:21.829Z,22.34
2023-04-03T09:15:37.958Z,21.51
2023-04-03T09:16:57.352Z,21.20
2023-04-03T09:18:06.278Z,21.99
2023-04-03T09:19:33.784Z,21.85
2023-04-03T09:20:52.069Z,21.82
2023-04-03T09:21:57.228Z,22.66
2023-04-03T09:22:59.758Z,23.26
2023-04-03T09:24:05.171Z,22.75
2023-04-03T09:25:10.310Z,23.35
2023-04-03T09:26:39.114Z,22.93
2023-04-03T09:27:41.684Z,24.24
2023-04-03T09:28:49.962Z,24.41
2023-04-03T09:29:56.512Z,24.02
2023-04-03T09:31:01.345Z,24.09
2023-04-03T09:32:19.918Z,22.31
2023-04-03T09:33:23.757Z,21.99
2023-04-03T09:34:34.087Z,21.46
2023-04-03T09:35:47.516Z,19.27
2023-04-03T09:36:53.180Z,19.95
2023-04-03T09:38:02.279Z,19.51
2023-04-03T09:39:13.442Z,18.98
2023-04-03T09:40:27.956Z,19.29
2023-04-03T09:41:30.495Z,19.71
2023-04-03T09:42:34.082Z,20.34
2023-04-03T09:43:40.099Z,20.73
2023-04-03T09:44:42.728Z,21.29
2023-04-03T09:45:47.167Z,20.86
2023-04-03T09:46:49.848Z,19.68
2023-04-03T09:48:10.384Z,19.63
2023-04-03T09:49:15.249Z,20.60
2023-04-03T09:50:24.285Z,20.90
2023-04-03T09:51:29.173Z,20.79
2023-04-03T09:52:32.774Z,21.27
2023-04-03T09:53:42.021Z,21.58
2023-04-03T09:54:44.651Z,22.04
2023-04-03T09:55:47.429Z,22.31
2023-04-03T09:56:56.769Z,23.40
2023-04-03T09:58:05.656Z,22.26
2023-04-03T09:59:17.903Z,22.66
2023-04-03T10:00:25.226Z,23.15
2023-04-03T10:01:36.901Z,23.63
2023-04-03T10:02:41.486Z,23.79
2023-04-03T10:03:47.711Z,23.55
2023-04-03T10:05:02.497Z,22.33
2023-04-03T10:06:31.458Z,21.66
2023-04-03T10:07:38.138Z,21.79
2023-04-03T10:08:41.540Z,22.51
2023-04-03T10:09:57.389Z,23.56
2023-04-03T10:11:07.469Z,23.56
2023-04-03T10:12:13.277Z,23.44
2023-04-03T10:13:21.414Z,23.24
2023-04-03T10:14:24.197Z,23.49
2023-04-03T10:15:29.681Z,24.53
2023-04-03T10:16:53.737Z,24.60
2023-04-03T10:18:14.392Z,24.51
2023-04-03T10:19:33.535Z,23.31
2023-04-03T10:20:40.997Z,21.61
2023-04-03T10:22:01.709Z,21.56
2023-04-03T10:23:07.006Z,22.25
2023-04-03T10:24:12.282Z,22.38
2023-04-03T10:25:38.191Z,23.52
2023-04-03T10:26:50.933Z,23.78
2023-04-03T10:28:02.192Z,23.60
2023-04-03T10:29:16.232Z,23.23
2023-04-03T10:30:21.977Z,22.25
2023-04-03T10:32:03.164Z,21.61
2023-04-03T10:33:12.515Z,22.33
2023-04-03T10:34:36.050Z,22.61
2023-04-03T10:35:42.993Z,21.99
2023-04-03T10:36:48.767Z,23.12
2023-04-03T10:38:10.237Z,23.20
2023-04-03T10:39:46.719Z,23.42
2023-04-03T10:41:10.239Z,23.13
2023-04-03T10:42:17.594Z,23.84
2023-04-03T10:43:37.369Z,24.42
2023-04-03T10:45:01.364Z,24.63
2023-04-03T10:46:21.088Z,22.93
2023-04-03T10:47:39.587Z,23.51
2023-04-03T10:49:03.524Z,22.29
2023-04-03T10:50:28.484Z,21.57
2023-04-03T10:51:42.885Z,22.08
2023-04-03T10:52:57.770Z,22.97
2023-04-03T10:54:21.769Z,21.89
2023-04-03T10:55:27.293Z,21.53
2023-04-03T10:56:37.373Z,21.46
2023-04-03T10:57:41.980Z,22.27
2023-04-03T10:58:49.864Z,21.67
2023-04-03T11:00:06.055Z,20.53
2023-04-03T11:01:18.447Z,21.41
2023-04-03T11:02:30.227Z,21.65
2023-04-03T11:03:47.376Z,22.50
2023-04-03T11:04:56.345Z,23.11
2023-04-03T11:06:02.224Z,24.09
2023-04-03T11:07:19.980Z,23.65
2023-04-03T11:08:52.744Z,24.85
2023-04-03T11:10:01.147Z,26.09
2023-04-03T11:11:34.145Z,25.38
2023-04-03T11:12:50.603Z,26.13
2023-04-03T11:14:04.865Z,26.22
2023-04-03T11:15:14.589Z,26.21
2023-04-03T11:16:24.467Z,25.78
2023-04-03T11:17:51.354Z,25.88
2023-04-03T11:19:01.051Z,25.92
2023-04-03T11:20:28.572Z,25.63
2023-04-03T11:21:57.911Z,26.15
2023-04-03T11:23:35.612Z,27.08
2023-04-03T11:24:44.351Z,26.58
2023-04-03T11:25:51.074Z,26.82
2023-04-03T11:26:57.332Z,27.10
2023-04-03T11:28:13.516Z,26.39
2023-04-03T11:29:34.243Z,26.95
2023-04-03T11:31:03.371Z,25.17
2023-04-03T11:32:12.922Z,25.22
2023-04-03T11:33:24.676Z,25.22
2023-04-03T11:34:39.451Z,24.99
2023-04-03T11:35:48.605Z,25.20
2023-04-03T11:36:56.377Z,25.19
2023-04-03T11:38:01.644Z,24.17
2023-04-03T11:39:34.834Z,23.16
2023-04-03T11:40:39.082Z,23.44
2023-04-03T11:41:41.620Z,20.95
2023-04-03T11:42:48.602Z,21.84
2023-04-03T11:44:06.684Z,21.15
2023-04-03T11:45:30.941Z,21.67
2023-04-03T11:46:57.235Z,22.10
2023-04-03T11:48:20.894Z,22.87
2023-04-03T11:49:54.087Z,24.65
2023-04-03T11:50:57.824Z,24.65
2023-04-03T11:52:00.331Z,24.70
2023-04-03T11:53:09.106Z,24.53
2023-04-03T11:54:45.589Z,24.53
2023-04-03T11:55:51.001Z,24.27
2023-04-03T11:56:53.648Z,24.16
2023-04-03T11:57:59.152Z,24.28
2023-04-03T11:59:14.706Z,24.21
2023-04-03T12:00:45.811Z,23.31
2023-04-03T12:01:48.138Z,23.63
2023-04-03T12:02:54.267Z,23.88
2023-04-03T12:03:59.549Z,24.71
2023-04-03T12:05:27.339Z,24.24
2023-04-03T12:06:37.048Z,23.70
2023-04-03T12:07:39.574Z,22.68
2023-04-03T12:08:44.614Z,22.08
2023-04-03T12:09:47.042Z,22.09
2023-04-03T12:11:17.716Z,22.29
2023-04-03T12:12:32.145Z,22.47
2023-04-03T12:13:35.026Z,21.22
2023-04-03T12:14:37.909Z,21.21
2023-04-03T12:15:50.991Z,19.76
2023-04-03T12:16:58.699Z,20.52
2023-04-03T12:18:39.460Z,21.35
2023-04-03T12:19:44.637Z,21.81
2023-04-03T12:20:50.744Z,22.20
2023-04-03T12:21:58.102Z,22.13
2023-04-03T12:23:25.305Z,23.07
2023-04-03T12:24:32.385Z,23.23
2023-04-03T12:25:51.010Z,23.77
2023-04-03T12:27:02.886Z,24.10
2023-04-03T12:28:07.202Z,23.75
2023-04-03T12:29:35.760Z,23.46
2023-04-03T12:30:38.581Z,23.63
2023-04-03T12:31:55.671Z,23.69
2023-04-03T12:33:21.122Z,23.35
2023-04-03T12:34:45.243Z,22.94
2023-04-03T12:36:00.041Z,23.26
2023-04-03T12:37:04.203Z,23.48
2023-04-03T12:38:34.439Z,23.50
2023-04-03T12:40:05.644Z,23.20
2023-04-03T12:41:23.281Z,23.26
2023-04-03T12:42:33.844Z,23.28
2023-04-03T12:43:54.604Z,22.60
2023-04-03T12:45:05.908Z,22.51
2023-04-03T12:46:08.403Z,21.50
2023-04-03T12:47:37.195Z,19.21
2023-04-03T12:48:45.982Z,19.64
2023-04-03T12:49:52.831Z,19.70
2023-04-03T12:50:57.017Z,19.36
2023-04-03T12:51:59.890Z,18.89
2023-04-03T12:53:08.287Z,18.67
2023-04-03T12:54:17.775Z,19.00
2023-04-03T12:55:22.211Z,19.35
2023-04-03T12:56:33.667Z,19.74
2023-04-03T12:57:36.557Z,19.95
2023-04-03T12:58:38.893Z,19.93
2023-04-03T12:59:42.283Z,19.44
2023-04-03T13:00:44.780Z,19.39
2023-04-03T13:01:58.954Z,19.01
2023-04-03T13:03:05.118Z,18.51
2023-04-03T13:04:08.350Z,18.37
2023-04-03T13:05:16.358Z,18.46
2023-04-03T13:06:26.181Z,18.29
2023-04-03T13:07:34.733Z,18.50
2023-04-03T13:08:37.345Z,18.71
2023-04-03T13:09:39.982Z,18.87
2023-04-03T13:10:53.181Z,19.28
2023-04-03T13:12:12.865Z,18.14
2023-04-03T13:13:16.474Z,16.29
2023-04-03T13:14:24.863Z,16.78
2023-04-03T13:15:31.114Z,16.99
2023-04-03T13:16:35.116Z,17.06
2023-04-03T13:17:40.373Z,17.18
2023-04-03T13:18:43.228Z,17.36
2023-04-03T13:19:49.364Z,17.11
2023-04-03T13:20:53.192Z,17.27
2023-04-03T13:22:05.824Z,17.36
2023-04-03T13:23:12.152Z,17.68
2023-04-03T13:24:15.885Z,17.52
2023-04-03T13:25:21.521Z,17.76
2023-04-03T13:26:27.397Z,17.66
2023-04-03T13:27:32.554Z,17.23
2023-04-03T13:28:37.008Z,17.31
2023-04-03T13:29:40.966Z,17.61
2023-04-03T13:30:57.163Z,17.35
2023-04-03T13:32:01.578Z,17.29
2023-04-03T13:33:08.105Z,17.63
2023-04-03T13:34:10.482Z,17.46
2023-04-03T13:35:39.190Z,17.92
2023-04-03T13:36:43.487Z,17.73
2023-04-03T13:37:59.800Z,17.58
2023-04-03T13:39:22.362Z,17.47
2023-04-03T13:40:28.029Z,16.78
2023-04-03T13:41:34.248Z,16.77
2023-04-03T13:42:41.683Z,17.12
2023-04-03T13:43:44.234Z,17.32
2023-04-03T13:44:48.407Z,16.80
2023-04-03T13:45:59.767Z,17.10
2023-04-03T13:47:20.809Z,16.95
2023-04-03T13:48:24.707Z,16.79
2023-04-03T13:49:28.438Z,17.31
2023-04-03T13:50:32.208Z,17.37
2023-04-03T13:51:39.769Z,17.33
2023-04-03T13:52:47.217Z,17.22
2023-04-03T13:53:54.775Z,17.12
2023-04-03T13:55:02.908Z,16.94
2023-04-03T13:56:05.574Z,16.86
2023-04-03T13:57:17.197Z,16.69
2023-04-03T13:58:26.337Z,17.05
2023-04-03T13:59:34.976Z,16.70
2023-04-03T14:00:38.465Z,15.81
2023-04-03T14:01:52.272Z,15.97
2023-04-03T14:02:57.628Z,15.50
2023-04-03T14:04:03.801Z,15.43
2023-04-03T14:05:09.419Z,15.03
2023-04-03T14:06:16.510Z,15.10
2023-04-03T14:07:21.123Z,15.41
2023-04-03T14:08:32.288Z,15.47
2023-04-03T14:09:42.904Z,15.75
2023-04-03T14:10:45.907Z,15.97
2023-04-03T14:11:51.782Z,16.52
2023-04-03T14:12:54.305Z,16.56
2023-04-03T14:14:01.508Z,16.84
2023-04-03T14:15:18.914Z,16.74
2023-04-03T14:16:24.431Z,16.31
2023-04-03T14:17:28.847Z,16.61
2023-04-03T14:18:31.386Z,16.44
2023-04-03T14:19:36.584Z,16.43
2023-04-03T14:20:39.817Z,16.58
2023-04-03T14:21:42.430Z,16.66
2023-04-03T14:22:45.411Z,16.86
2023-04-03T14:23:49.147Z,16.37
2023-04-03T14:24:52.640Z,16.96